Juan_de_la_cosa — ECJE — position and weather

sailwx.info

Track history (hours):
 
Tides and Currents Weather Stations Pressure Air Temp Water Temp Dewpoint Dewpoint Depression Visibility Wind Speed Wind Dir Waves Ship Positions

Juan_de_la_cosa

Last reported at 2016-Sep-02 14:27 UTC. Time now 2016-Sep-25 17:30 UTC.
Position N 43°19' W 001°55'.
Warning: this ship's position is 23 days out of date.

Length 75 m; draft 4.5 m.

Type: SAR. MMSI: 224612000.

Date/timePositionNaut miles runAvg speedWind from/ knotsBaromVisibWave heightAir tempDewpointWater temp
2016-Sep-02 14:27N 43°19' W 001°55'0 0.1
2016-Sep-02 13:23N 43°19' W 001°54'3 3.5
2016-Sep-02 12:34N 43°21' W 001°57'1110.9
2016-Sep-02 11:33N 43°24' W 002°12'1313.3
2016-Sep-02 10:33N 43°29' W 002°29'1313.1
2016-Sep-02 09:33N 43°32' W 002°47'1613.1
2016-Sep-02 08:18N 43°34' W 003°09'29 5.1
2016-Sep-02 02:31N 43°27' W 003°49'0 0.0
2016-Sep-02 01:32N 43°27' W 003°49'0 0.0
2016-Sep-02 00:31N 43°27' W 003°49'0 0.0
2016-Sep-01 23:25N 43°27' W 003°49'  
2016-Aug-25 13:31N 43°27' W 003°49'78 2.7
2016-Aug-24 08:21N 43°46' W 005°33'1110.1
2016-Aug-24 07:15N 43°42' W 005°47'810.3
2016-Aug-24 06:28N 43°43' W 005°59'5310.8
2016-Aug-24 01:31N 43°48' W 007°12'1110.6
2016-Aug-24 00:31N 43°50' W 007°26'1010.5
2016-Aug-23 23:33N 43°51' W 007°40'1010.3
2016-Aug-23 22:33N 43°52' W 007°55'1010.3
2016-Aug-23 21:34N 43°52' W 008°09'1110.7
2016-Aug-23 20:33N 43°52' W 008°24'8 7.9
2016-Aug-23 19:30N 43°53' W 008°35'9 2.2
2016-Aug-23 15:27N 43°47' W 008°43'  
Track history (hours):
 
Tides and Currents Weather Stations Pressure Air Temp Water Temp Dewpoint Dewpoint Depression Visibility Wind Speed Wind Dir Waves Ship Positions

Juan_de_la_cosa

Last reported at 2016-Sep-02 14:27 UTC. Time now 2016-Sep-25 17:30 UTC.
Position N 43°19' W 001°55'.
Warning: this ship's position is 23 days out of date.

Length 75 m; draft 4.5 m.

Type: SAR. MMSI: 224612000.

Date/timePositionNaut miles runAvg speedWind from/ knotsBaromVisibWave heightAir tempDewpointWater temp
2016-Sep-02 14:27N 43°19' W 001°55'0 0.1
2016-Sep-02 13:23N 43°19' W 001°54'3 3.5
2016-Sep-02 12:34N 43°21' W 001°57'1110.9
2016-Sep-02 11:33N 43°24' W 002°12'1313.3
2016-Sep-02 10:33N 43°29' W 002°29'1313.1
2016-Sep-02 09:33N 43°32' W 002°47'1613.1
2016-Sep-02 08:18N 43°34' W 003°09'29 5.1
2016-Sep-02 02:31N 43°27' W 003°49'0 0.0
2016-Sep-02 01:32N 43°27' W 003°49'0 0.0
2016-Sep-02 00:31N 43°27' W 003°49'0 0.0
2016-Sep-01 23:25N 43°27' W 003°49'  
2016-Aug-25 13:31N 43°27' W 003°49'78 2.7
2016-Aug-24 08:21N 43°46' W 005°33'1110.1
2016-Aug-24 07:15N 43°42' W 005°47'810.3
2016-Aug-24 06:28N 43°43' W 005°59'5310.8
2016-Aug-24 01:31N 43°48' W 007°12'1110.6
2016-Aug-24 00:31N 43°50' W 007°26'1010.5
2016-Aug-23 23:33N 43°51' W 007°40'1010.3
2016-Aug-23 22:33N 43°52' W 007°55'1010.3
2016-Aug-23 21:34N 43°52' W 008°09'1110.7
2016-Aug-23 20:33N 43°52' W 008°24'8 7.9
2016-Aug-23 19:30N 43°53' W 008°35'9 2.2
2016-Aug-23 15:27N 43°47' W 008°43'  

Dump ship's entire track history